»·PEaware :: RNGR819 KNGP-KNGP

RNGR819 :: KNGP-KNGP

FLIGHT INFORMATION

Flight Status: Arrived
Operator: Unknown
More flights by this operator :: More flights under this callsign
Pilot: USN Avenger (31125)
Aircraft: BEECH AIRCRAFT T-6A TEXAN
(TEX2)
More flights by this aircraft type
Origin: KNGP Corpus Christi NAS/Truax
United States
Destination: KNGP Corpus Christi NAS/Truax
United States
More flights between these airports :: More routes between these airports
Route: ZOMBIE1, KINGS4, SHAMROCK
File this flight plan on PilotEdge
Remarks:
Altitude:
(Current/Filed)
14,500ft
Speed:
(Current/Filed)
200kts
Departed: 21-Nov-23 09:26 AM
Arrived: 21-Nov-23 10:07 AM
Distance/Time
Traveled:
0nm/0:40
Distance/Time
To Go:
Arrived

Flight Plot

Page will automatically refresh every two minutes.

Flight plan parsing failed; only flown route is shown


Map Options




Map Legend


Flown Route
Filed Route
Departure Airport
Arrival Airport
Navaid (VOR, NDB)
Fix

Horizontal Profiles

Position Reports

Time Latitude Longitude Heading Altitude Ground
Speed
21-Nov-23 09:16 27.698501 -97.284266 159 22ft 0kts
21-Nov-23 09:17 27.695456 -97.291197 223 22ft 0kts
21-Nov-23 09:18 27.695454 -97.291199 223 22ft 0kts
21-Nov-23 09:19 27.695453 -97.291200 223 22ft 0kts
21-Nov-23 09:20 27.695452 -97.291201 223 22ft 0kts
21-Nov-23 09:21 27.695451 -97.291202 223 22ft 0kts
21-Nov-23 09:22 27.695449 -97.291204 223 22ft 0kts
21-Nov-23 09:23 27.695448 -97.291205 223 22ft 0kts
21-Nov-23 09:24 27.694765 -97.291230 136 22ft 15kts
21-Nov-23 09:25 27.667758 -97.262448 137 547ft 201kts
21-Nov-23 09:26 27.668377 -97.219286 0 2239ft 189kts
21-Nov-23 09:27 27.721270 -97.229017 351 4695ft 196kts
21-Nov-23 09:28 27.781273 -97.240385 347 5717ft 247kts
21-Nov-23 09:29 27.849794 -97.257791 347 5549ft 252kts
21-Nov-23 09:30 27.908117 -97.269123 357 5848ft 243kts
21-Nov-23 09:31 27.968047 -97.262138 14 8694ft 204kts
21-Nov-23 09:32 28.021505 -97.245016 13 11222ft 200kts
21-Nov-23 09:33 28.076895 -97.240466 359 13487ft 200kts
21-Nov-23 09:34 28.131864 -97.258050 330 14951ft 231kts
21-Nov-23 09:35 28.194712 -97.298544 333 14107ft 280kts
21-Nov-23 09:36 28.262652 -97.337077 332 13244ft 272kts
21-Nov-23 09:37 28.317455 -97.381038 314 13229ft 184kts
21-Nov-23 09:38 28.307941 -97.390910 188 10361ft 197kts
21-Nov-23 09:39 28.307941 -97.390910 188 10361ft 197kts
21-Nov-23 09:40 28.307941 -97.390910 188 10361ft 197kts
21-Nov-23 09:41 28.307941 -97.390910 188 10361ft 197kts
21-Nov-23 09:42 28.261390 -97.391013 167 9332ft 215kts
21-Nov-23 09:43 28.200080 -97.375504 159 6974ft 229kts
21-Nov-23 09:44 28.225024 -97.343673 340 2782ft 214kts
21-Nov-23 09:45 28.281554 -97.371010 358 2594ft 230kts
21-Nov-23 09:46 28.267125 -97.325740 149 2691ft 237kts
21-Nov-23 09:47 28.208765 -97.288021 144 2710ft 244kts
21-Nov-23 09:48 28.196754 -97.278518 145 2712ft 245kts
21-Nov-23 09:49 28.193546 -97.276079 146 2723ft 244kts
21-Nov-23 09:50 28.133928 -97.237483 151 2633ft 242kts
21-Nov-23 09:51 28.074607 -97.200311 149 2556ft 245kts
21-Nov-23 09:52 28.012302 -97.169150 157 2438ft 244kts
21-Nov-23 09:53 27.950841 -97.138471 155 1413ft 234kts
21-Nov-23 09:54 27.921051 -97.126251 185 1007ft 239kts
21-Nov-23 09:55 27.921051 -97.126251 185 1007ft 239kts
21-Nov-23 09:56 27.897538 -97.135047 200 1206ft 233kts
21-Nov-23 09:57 27.840272 -97.158364 198 1136ft 241kts
21-Nov-23 09:58 27.774090 -97.170477 183 997ft 242kts
21-Nov-23 09:59 27.718144 -97.199824 258 1161ft 233kts
21-Nov-23 10:00 27.731667 -97.266589 285 1176ft 209kts
21-Nov-23 10:01 27.709855 -97.300804 150 1019ft 200kts
21-Nov-23 10:02 27.695910 -97.277590 313 767ft 123kts
21-Nov-23 10:03 27.695077 -97.291546 137 43ft 107kts
21-Nov-23 10:04 27.682366 -97.266156 357 785ft 126kts
21-Nov-23 10:05 27.706613 -97.290843 306 877ft 116kts
21-Nov-23 10:06 27.689887 -97.285689 123 22ft 25kts
21-Nov-23 10:07 27.689581 -97.283984 87 22ft 0kts
21-Nov-23 10:08 27.690029 -97.282891 4 22ft 14kts
21-Nov-23 10:09 27.690029 -97.282891 4 22ft 14kts

Navigation Log

Ident Type
Flight plan parsing failed, navigation log unavailable